createdAt,value
2023-01-19T00:01:52.607Z,28.01
2023-01-19T00:04:23.224Z,28.01
2023-01-19T00:06:53.796Z,28.04
2023-01-19T00:09:24.693Z,28.04
2023-01-19T00:11:55.880Z,28.09
2023-01-19T00:14:26.650Z,27.86
2023-01-19T00:16:57.718Z,27.65
2023-01-19T00:19:28.482Z,27.50
2023-01-19T00:21:59.172Z,27.36
2023-01-19T00:24:29.794Z,27.28
2023-01-19T00:27:00.309Z,27.23
2023-01-19T00:29:34.943Z,27.39
2023-01-19T00:32:06.909Z,27.52
2023-01-19T00:34:50.823Z,27.61
2023-01-19T00:37:22.083Z,27.67
2023-01-19T00:39:52.720Z,27.68
2023-01-19T00:42:41.106Z,27.73
2023-01-19T00:45:13.715Z,27.81
2023-01-19T00:47:44.343Z,27.86
2023-01-19T00:50:15.770Z,27.91
2023-01-19T00:52:47.343Z,27.95
2023-01-19T00:55:18.617Z,27.98
2023-01-19T00:57:49.320Z,28.00
2023-01-19T01:00:21.404Z,28.03
2023-01-19T01:02:52.847Z,28.06
2023-01-19T01:05:24.029Z,28.08
2023-01-19T01:07:54.584Z,28.11
2023-01-19T01:10:26.630Z,28.13
2023-01-19T01:13:21.996Z,28.15
2023-01-19T01:15:52.469Z,28.18
2023-01-19T01:18:23.674Z,28.19
2023-01-19T01:20:56.202Z,28.22
2023-01-19T01:23:26.881Z,28.20
2023-01-19T01:25:57.669Z,28.20
2023-01-19T01:28:28.361Z,28.17
2023-01-19T01:30:59.006Z,27.66
2023-01-19T01:33:39.841Z,28.21
2023-01-19T01:36:13.129Z,28.23
2023-01-19T01:38:44.086Z,28.21
2023-01-19T01:41:14.749Z,28.19
2023-01-19T01:43:50.005Z,28.16
2023-01-19T01:46:21.361Z,28.21
2023-01-19T01:48:55.804Z,28.25
2023-01-19T01:51:29.924Z,28.29
2023-01-19T01:54:10.306Z,28.29
2023-01-19T01:56:48.804Z,28.36
2023-01-19T01:59:30.954Z,28.37
2023-01-19T02:02:22.256Z,28.37
2023-01-19T02:04:54.213Z,28.39
2023-01-19T02:07:47.906Z,28.38
2023-01-19T02:10:36.545Z,28.34
2023-01-19T02:13:23.073Z,28.25
2023-01-19T02:15:54.932Z,28.17
2023-01-19T02:18:26.980Z,28.16
2023-01-19T02:21:14.991Z,28.15
2023-01-19T02:23:50.784Z,28.14
2023-01-19T02:26:23.101Z,28.17
2023-01-19T02:29:04.871Z,28.19
2023-01-19T02:31:36.948Z,28.20
2023-01-19T02:34:08.396Z,28.20
2023-01-19T02:36:45.067Z,28.23
2023-01-19T02:39:17.436Z,28.23
2023-01-19T02:41:59.158Z,28.21
2023-01-19T02:44:29.572Z,28.22
2023-01-19T02:46:59.995Z,28.25
2023-01-19T02:49:33.642Z,28.28
2023-01-19T02:52:04.344Z,28.34
2023-01-19T02:54:40.543Z,28.40
2023-01-19T02:57:29.179Z,28.43
2023-01-19T03:00:25.465Z,28.46
2023-01-19T03:03:08.090Z,28.50
2023-01-19T03:05:47.948Z,28.60
2023-01-19T03:08:24.405Z,28.63
2023-01-19T03:11:05.794Z,28.66
2023-01-19T03:13:43.326Z,28.71
2023-01-19T03:16:18.274Z,28.74
2023-01-19T03:18:54.135Z,28.86
2023-01-19T03:21:27.577Z,28.94
2023-01-19T03:24:00.521Z,28.99
2023-01-19T03:26:33.523Z,29.03
2023-01-19T03:29:05.432Z,29.07
2023-01-19T03:31:36.874Z,29.13
2023-01-19T03:34:12.627Z,29.20
2023-01-19T03:36:47.416Z,29.17
2023-01-19T03:39:21.036Z,29.16
2023-01-19T03:41:54.078Z,29.16
2023-01-19T03:44:26.562Z,29.13
2023-01-19T03:46:58.597Z,29.16
2023-01-19T03:49:29.956Z,29.20
2023-01-19T03:52:01.174Z,29.23
2023-01-19T03:54:31.693Z,29.28
2023-01-19T03:57:02.063Z,29.31
2023-01-19T03:59:32.490Z,29.29
2023-01-19T04:02:03.094Z,29.32
2023-01-19T04:04:34.102Z,29.34
2023-01-19T04:07:05.325Z,29.33
2023-01-19T04:09:35.719Z,29.33
2023-01-19T04:12:06.250Z,29.37
2023-01-19T04:14:37.011Z,29.40
2023-01-19T04:17:07.403Z,29.40
2023-01-19T04:19:38.566Z,29.40
2023-01-19T04:22:08.988Z,29.42
2023-01-19T04:24:39.743Z,29.44
2023-01-19T04:27:10.141Z,29.45
2023-01-19T04:29:41.096Z,29.46
2023-01-19T04:32:11.412Z,29.44
2023-01-19T04:34:41.876Z,29.46
2023-01-19T04:37:12.412Z,29.48
2023-01-19T04:39:43.291Z,29.50
2023-01-19T04:42:14.431Z,29.53
2023-01-19T04:44:44.987Z,29.54
2023-01-19T04:47:15.772Z,29.56
2023-01-19T04:49:46.301Z,29.58
2023-01-19T04:52:17.060Z,29.60
2023-01-19T04:54:47.501Z,29.61
2023-01-19T04:57:18.026Z,29.60
2023-01-19T04:59:48.423Z,29.65
2023-01-19T05:02:19.305Z,29.72
2023-01-19T05:04:50.036Z,29.79
2023-01-19T05:07:20.783Z,29.84
2023-01-19T05:09:51.379Z,29.92
2023-01-19T05:12:22.027Z,29.97
2023-01-19T05:14:52.443Z,30.01
2023-01-19T05:17:22.761Z,30.04
2023-01-19T05:19:53.290Z,30.08
2023-01-19T05:22:23.619Z,30.12
2023-01-19T05:24:54.049Z,30.14
2023-01-19T05:27:24.356Z,30.17
2023-01-19T05:29:54.957Z,30.19
2023-01-19T05:32:25.692Z,30.10
2023-01-19T05:34:56.087Z,29.98
2023-01-19T05:37:26.658Z,29.92
2023-01-19T05:39:57.240Z,29.91
2023-01-19T05:42:27.997Z,29.90
2023-01-19T05:44:58.603Z,29.93
2023-01-19T05:47:31.055Z,29.98
2023-01-19T05:50:01.519Z,30.04
2023-01-19T05:52:32.185Z,30.01
2023-01-19T05:55:02.587Z,30.02
2023-01-19T05:57:33.134Z,30.05
2023-01-19T06:00:05.414Z,30.05
2023-01-19T06:02:39.032Z,30.10
2023-01-19T06:05:09.578Z,30.11
2023-01-19T06:07:40.577Z,30.06
2023-01-19T06:10:11.412Z,30.06
2023-01-19T06:12:44.807Z,30.03
2023-01-19T06:15:15.861Z,30.06
2023-01-19T06:17:46.258Z,30.06
2023-01-19T06:20:17.323Z,30.07
2023-01-19T06:22:47.750Z,30.10
2023-01-19T06:25:18.274Z,30.06
2023-01-19T06:27:48.754Z,30.08
2023-01-19T06:30:19.509Z,30.11
2023-01-19T06:32:49.880Z,30.11
2023-01-19T06:35:20.562Z,30.14
2023-01-19T06:37:51.106Z,30.13
2023-01-19T06:40:21.923Z,30.16
2023-01-19T06:42:52.461Z,30.18
2023-01-19T06:45:22.846Z,30.18
2023-01-19T06:47:53.134Z,30.21
2023-01-19T06:50:23.652Z,30.22
2023-01-19T06:52:54.216Z,30.24
2023-01-19T06:55:24.931Z,30.25
2023-01-19T06:58:01.584Z,30.28
2023-01-19T07:00:33.247Z,30.31
2023-01-19T07:03:04.451Z,30.31
2023-01-19T07:05:37.212Z,30.34
2023-01-19T07:08:08.563Z,30.35
2023-01-19T07:11:25.650Z,30.35
2023-01-19T07:13:30.073Z,30.38
2023-01-19T07:16:00.745Z,30.40
2023-01-19T07:18:31.281Z,30.41
2023-01-19T07:21:02.265Z,30.43
2023-01-19T07:23:33.279Z,30.46
2023-01-19T07:26:04.572Z,30.48
2023-01-19T07:28:35.092Z,30.49
2023-01-19T07:31:05.680Z,30.51
2023-01-19T07:33:36.204Z,30.53
2023-01-19T07:36:06.562Z,30.56
2023-01-19T07:38:37.076Z,30.59
2023-01-19T07:41:08.689Z,30.62
2023-01-19T07:43:39.305Z,30.63
2023-01-19T07:46:10.378Z,30.65
2023-01-19T07:48:41.022Z,30.66
2023-01-19T07:51:13.369Z,30.68
2023-01-19T07:53:43.830Z,30.72
2023-01-19T07:56:14.492Z,30.75
2023-01-19T07:58:45.001Z,30.77
2023-01-19T08:01:16.006Z,30.78
2023-01-19T08:03:47.980Z,30.79
2023-01-19T08:06:23.496Z,30.83
2023-01-19T08:08:54.837Z,30.86
2023-01-19T08:11:25.169Z,30.87
2023-01-19T08:13:55.576Z,30.88
2023-01-19T08:16:26.198Z,30.89
2023-01-19T08:18:56.739Z,30.92
2023-01-19T08:21:27.488Z,30.93
2023-01-19T08:23:58.934Z,30.93
2023-01-19T08:26:33.917Z,30.92
2023-01-19T08:29:05.933Z,30.88
2023-01-19T08:31:36.540Z,30.86
2023-01-19T08:34:07.340Z,30.86
2023-01-19T08:36:38.255Z,30.84
2023-01-19T08:39:09.211Z,30.87
2023-01-19T08:41:40.136Z,30.84
2023-01-19T08:44:10.540Z,30.86
2023-01-19T08:46:40.984Z,30.90
2023-01-19T08:49:11.689Z,30.94
2023-01-19T08:51:42.218Z,30.99
2023-01-19T08:54:13.212Z,30.99
2023-01-19T08:56:43.658Z,30.98
2023-01-19T08:59:14.395Z,30.93
2023-01-19T09:01:46.114Z,30.91
2023-01-19T09:04:16.618Z,30.92
2023-01-19T09:06:47.568Z,30.89
2023-01-19T09:09:18.541Z,30.92
2023-01-19T09:11:48.885Z,30.90
2023-01-19T09:14:19.511Z,30.91
2023-01-19T09:16:50.406Z,30.91
2023-01-19T09:19:20.806Z,30.89
2023-01-19T09:21:52.183Z,30.90
2023-01-19T09:24:22.858Z,30.90
2023-01-19T09:26:53.498Z,30.95
2023-01-19T09:29:24.215Z,31.16
2023-01-19T09:31:54.641Z,31.33
2023-01-19T09:34:27.146Z,31.42
2023-01-19T09:36:57.452Z,31.49
2023-01-19T09:39:28.580Z,31.37
2023-01-19T09:42:05.023Z,31.19
2023-01-19T09:44:37.296Z,31.08
2023-01-19T09:47:16.199Z,31.07
2023-01-19T09:49:50.467Z,31.05
2023-01-19T09:52:21.896Z,31.04
2023-01-19T09:54:56.720Z,31.08
2023-01-19T09:57:28.655Z,31.04
2023-01-19T10:00:00.824Z,31.04
2023-01-19T10:02:38.092Z,30.76
2023-01-19T10:05:27.479Z,31.05
2023-01-19T10:08:07.523Z,31.02
2023-01-19T10:10:42.458Z,31.05
2023-01-19T10:13:15.722Z,31.04
2023-01-19T10:15:51.523Z,31.00
2023-01-19T10:18:27.027Z,31.00
2023-01-19T10:21:05.368Z,31.01
2023-01-19T10:23:51.214Z,31.00
2023-01-19T10:26:22.412Z,31.01
2023-01-19T10:28:57.749Z,31.01
2023-01-19T10:31:28.822Z,31.08
2023-01-19T10:33:59.869Z,31.27
2023-01-19T10:36:38.002Z,31.37
2023-01-19T10:39:09.957Z,31.45
2023-01-19T10:41:49.587Z,31.52
2023-01-19T10:44:30.519Z,31.55
2023-01-19T10:47:02.479Z,31.59
2023-01-19T10:49:46.135Z,31.61
2023-01-19T10:52:34.891Z,31.63
2023-01-19T10:55:07.124Z,31.63
2023-01-19T10:57:39.684Z,31.65
2023-01-19T11:00:29.983Z,31.66
2023-01-19T11:03:00.667Z,31.66
2023-01-19T11:05:32.744Z,31.65
2023-01-19T11:08:03.133Z,31.50
2023-01-19T11:10:34.688Z,31.28
2023-01-19T11:13:22.870Z,31.14
2023-01-19T11:15:55.900Z,31.05
2023-01-19T11:18:30.354Z,31.00
2023-01-19T11:21:03.795Z,31.00
2023-01-19T11:23:47.140Z,30.95
2023-01-19T11:26:27.597Z,30.93
2023-01-19T11:28:59.116Z,30.89
2023-01-19T11:31:29.589Z,30.89
2023-01-19T11:34:01.581Z,30.87
2023-01-19T11:36:37.723Z,30.86
2023-01-19T11:39:29.571Z,30.87
2023-01-19T11:42:04.327Z,30.86
2023-01-19T11:44:44.068Z,30.86
2023-01-19T11:47:18.108Z,30.88
2023-01-19T11:49:51.247Z,30.85
2023-01-19T11:52:35.534Z,30.86
2023-01-19T11:55:16.279Z,30.85
2023-01-19T11:57:52.837Z,30.86
2023-01-19T12:00:26.974Z,30.84
2023-01-19T12:03:01.305Z,30.84
2023-01-19T12:05:33.781Z,30.85
2023-01-19T12:08:08.067Z,30.85
2023-01-19T12:10:42.960Z,30.85
2023-01-19T12:13:21.275Z,30.87
2023-01-19T12:16:01.798Z,30.84
2023-01-19T12:18:35.795Z,30.85
2023-01-19T12:21:06.403Z,30.86
2023-01-19T12:23:43.208Z,30.84
2023-01-19T12:26:25.784Z,30.84
2023-01-19T12:28:59.994Z,30.83
2023-01-19T12:31:30.552Z,30.82
2023-01-19T12:34:21.656Z,30.81
2023-01-19T12:36:52.169Z,30.82
2023-01-19T12:39:23.800Z,30.82
2023-01-19T12:42:14.469Z,30.81
2023-01-19T12:44:46.287Z,30.81
2023-01-19T12:47:16.576Z,30.80
2023-01-19T12:49:51.901Z,30.79
2023-01-19T12:52:52.639Z,30.79
2023-01-19T12:55:25.840Z,30.79
2023-01-19T12:58:09.049Z,30.77
2023-01-19T13:00:44.193Z,30.76
2023-01-19T13:03:20.959Z,30.73
2023-01-19T13:05:54.156Z,30.69
2023-01-19T13:08:25.857Z,30.67
2023-01-19T13:11:03.572Z,30.66
2023-01-19T13:13:33.873Z,30.63
2023-01-19T13:16:26.217Z,30.61
2023-01-19T13:18:59.398Z,30.58
2023-01-19T13:21:38.043Z,30.58
2023-01-19T13:24:09.782Z,30.57
2023-01-19T13:26:52.803Z,30.57
2023-01-19T13:29:28.935Z,30.54
2023-01-19T13:32:04.215Z,30.55
2023-01-19T13:34:43.668Z,30.57
2023-01-19T13:37:40.207Z,30.58
2023-01-19T13:40:17.961Z,30.57
2023-01-19T13:42:49.439Z,30.56
2023-01-19T13:45:19.859Z,30.56
2023-01-19T13:47:51.008Z,30.52
2023-01-19T13:50:22.916Z,30.47
2023-01-19T13:52:55.383Z,30.46
2023-01-19T13:55:26.365Z,30.44
2023-01-19T13:57:56.961Z,30.38
2023-01-19T14:00:28.603Z,30.14
2023-01-19T14:03:03.746Z,29.93
2023-01-19T14:05:35.667Z,29.77
2023-01-19T14:08:15.154Z,29.74
2023-01-19T14:11:03.618Z,29.64
2023-01-19T14:13:36.245Z,29.60
2023-01-19T14:16:07.780Z,29.54
2023-01-19T14:18:38.714Z,29.45
2023-01-19T14:21:20.180Z,29.40
2023-01-19T14:23:52.072Z,29.34
2023-01-19T14:26:40.924Z,29.25
2023-01-19T14:29:24.195Z,29.16
2023-01-19T14:32:06.869Z,29.10
2023-01-19T14:34:40.292Z,29.02
2023-01-19T14:37:21.705Z,28.94
2023-01-19T14:39:55.071Z,28.83
2023-01-19T14:42:28.021Z,28.76
2023-01-19T14:44:59.905Z,28.68
2023-01-19T14:47:32.600Z,28.62
2023-01-19T14:50:09.041Z,28.58
2023-01-19T14:52:41.538Z,28.49
2023-01-19T14:55:34.771Z,28.46
2023-01-19T14:58:10.148Z,28.40
2023-01-19T15:00:41.562Z,28.35
2023-01-19T15:03:12.378Z,28.32
2023-01-19T15:05:44.689Z,28.28
2023-01-19T15:08:35.179Z,28.24
2023-01-19T15:11:11.336Z,28.38
2023-01-19T15:13:43.421Z,28.47
2023-01-19T15:16:13.917Z,28.46
2023-01-19T15:18:44.364Z,28.51
2023-01-19T15:21:20.914Z,28.55
2023-01-19T15:23:51.974Z,28.56
2023-01-19T15:26:23.668Z,28.59
2023-01-19T15:28:54.635Z,28.60
2023-01-19T15:31:25.719Z,28.58
2023-01-19T15:33:56.484Z,28.59
2023-01-19T15:36:26.849Z,28.60
2023-01-19T15:38:58.466Z,28.59
2023-01-19T15:41:31.291Z,28.56
2023-01-19T15:44:01.876Z,28.55
2023-01-19T15:46:32.155Z,28.58
2023-01-19T15:49:02.641Z,28.52
2023-01-19T15:51:33.030Z,28.50
2023-01-19T15:54:03.454Z,28.50
2023-01-19T15:56:34.035Z,28.49
2023-01-19T15:59:04.524Z,28.47
2023-01-19T16:01:36.344Z,28.45
2023-01-19T16:04:08.194Z,28.43
2023-01-19T16:06:38.846Z,28.41
2023-01-19T16:09:09.683Z,28.37
2023-01-19T16:11:40.405Z,28.36
2023-01-19T16:14:11.035Z,28.35
2023-01-19T16:16:41.763Z,28.36
2023-01-19T16:19:15.358Z,28.33
2023-01-19T16:21:45.698Z,28.32
2023-01-19T16:24:16.243Z,28.28
2023-01-19T16:26:46.599Z,28.28
2023-01-19T16:29:17.034Z,28.26
2023-01-19T16:31:47.405Z,28.25
2023-01-19T16:34:17.988Z,28.22
2023-01-19T16:36:48.623Z,28.25
2023-01-19T16:39:19.415Z,28.25
2023-01-19T16:41:49.693Z,28.22
2023-01-19T16:44:20.784Z,28.18
2023-01-19T16:46:53.969Z,28.18
2023-01-19T16:49:28.162Z,28.13
2023-01-19T16:52:18.384Z,28.13
2023-01-19T16:54:48.934Z,28.10
2023-01-19T16:57:19.247Z,28.09
2023-01-19T16:59:49.716Z,28.10
2023-01-19T17:02:20.071Z,28.08
2023-01-19T17:04:50.844Z,28.02
2023-01-19T17:07:21.131Z,28.01
2023-01-19T17:09:51.575Z,27.97
2023-01-19T17:12:22.132Z,27.96
2023-01-19T17:14:52.624Z,27.96
2023-01-19T17:17:23.106Z,27.93
2023-01-19T17:19:53.513Z,27.91
2023-01-19T17:22:23.842Z,27.90
2023-01-19T17:24:54.329Z,27.92
2023-01-19T17:27:24.878Z,27.88
2023-01-19T17:29:55.469Z,27.85
2023-01-19T17:32:25.911Z,27.85
2023-01-19T17:34:56.901Z,27.83
2023-01-19T17:37:27.273Z,27.83
2023-01-19T17:39:57.930Z,27.84
2023-01-19T17:42:28.511Z,27.87
2023-01-19T17:44:59.046Z,27.93
2023-01-19T17:47:29.379Z,28.00
2023-01-19T17:49:59.772Z,28.06
2023-01-19T17:52:30.663Z,28.15
2023-01-19T17:55:01.257Z,28.19
2023-01-19T17:57:31.845Z,28.16
2023-01-19T18:00:02.261Z,28.10
2023-01-19T18:02:42.467Z,28.04
2023-01-19T18:05:14.029Z,28.02
2023-01-19T18:07:44.386Z,28.00
2023-01-19T18:10:15.733Z,27.99
2023-01-19T18:12:46.669Z,27.97
2023-01-19T18:15:18.451Z,27.95
2023-01-19T18:17:48.754Z,27.91
2023-01-19T18:20:19.339Z,27.88
2023-01-19T18:22:49.943Z,27.85
2023-01-19T18:25:21.281Z,27.87
2023-01-19T18:27:51.560Z,27.82
2023-01-19T18:30:22.576Z,27.84
2023-01-19T18:32:53.674Z,27.89
2023-01-19T18:35:24.441Z,27.95
2023-01-19T18:37:56.242Z,28.02
2023-01-19T18:40:28.334Z,28.09
2023-01-19T18:42:58.893Z,28.14
2023-01-19T18:45:29.646Z,28.16
2023-01-19T18:48:02.285Z,28.15
2023-01-19T18:50:33.157Z,28.08
2023-01-19T18:53:03.583Z,28.05
2023-01-19T18:55:34.043Z,28.03
2023-01-19T18:58:06.495Z,27.98
2023-01-19T19:00:37.405Z,27.95
2023-01-19T19:03:11.660Z,27.92
2023-01-19T19:05:42.121Z,27.90
2023-01-19T19:08:12.495Z,27.86
2023-01-19T19:10:43.633Z,27.85
2023-01-19T19:13:14.525Z,27.82
2023-01-19T19:15:45.710Z,27.83
2023-01-19T19:18:17.753Z,27.88
2023-01-19T19:20:48.750Z,27.93
2023-01-19T19:23:19.143Z,28.00
2023-01-19T19:25:49.632Z,28.06
2023-01-19T19:28:20.074Z,28.12
2023-01-19T19:30:53.926Z,28.07
2023-01-19T19:33:24.233Z,28.04
2023-01-19T19:35:58.029Z,28.00
2023-01-19T19:38:29.345Z,27.95
2023-01-19T19:41:01.779Z,27.92
2023-01-19T19:43:33.326Z,27.90
2023-01-19T19:46:08.742Z,27.85
2023-01-19T19:48:39.517Z,27.83
2023-01-19T19:51:18.344Z,27.84
2023-01-19T19:53:51.406Z,27.88
2023-01-19T19:56:23.102Z,27.94
2023-01-19T19:58:55.377Z,28.00
2023-01-19T20:01:29.962Z,28.05
2023-01-19T20:04:06.779Z,28.11
2023-01-19T20:06:41.227Z,28.15
2023-01-19T20:09:14.076Z,28.10
2023-01-19T20:11:45.569Z,28.01
2023-01-19T20:14:17.545Z,27.97
2023-01-19T20:16:48.108Z,27.91
2023-01-19T20:19:19.614Z,27.83
2023-01-19T20:21:50.076Z,27.83
2023-01-19T20:24:22.474Z,27.85
2023-01-19T20:26:53.898Z,27.91
2023-01-19T20:29:24.507Z,27.96
2023-01-19T20:31:56.615Z,27.99
2023-01-19T20:34:29.524Z,28.05
2023-01-19T20:37:02.881Z,28.11
2023-01-19T20:39:37.835Z,28.13
2023-01-19T20:42:12.563Z,28.10
2023-01-19T20:44:43.075Z,28.03
2023-01-19T20:47:13.360Z,27.97
2023-01-19T20:49:43.985Z,27.90
2023-01-19T20:52:14.886Z,27.84
2023-01-19T20:54:45.300Z,27.77
2023-01-19T20:57:15.575Z,27.79
2023-01-19T20:59:46.142Z,27.83
2023-01-19T21:02:18.192Z,27.88
2023-01-19T21:04:48.771Z,27.92
2023-01-19T21:07:19.556Z,27.96
2023-01-19T21:09:50.241Z,27.99
2023-01-19T21:12:22.882Z,28.01
2023-01-19T21:14:53.248Z,27.95
2023-01-19T21:17:23.748Z,27.89
2023-01-19T21:19:54.477Z,27.83
2023-01-19T21:22:24.755Z,27.80
2023-01-19T21:24:55.143Z,27.76
2023-01-19T21:27:25.647Z,27.77
2023-01-19T21:29:56.173Z,27.79
2023-01-19T21:32:26.610Z,27.84
2023-01-19T21:34:57.031Z,27.89
2023-01-19T21:37:27.561Z,27.95
2023-01-19T21:39:58.469Z,27.99
2023-01-19T21:42:28.944Z,28.03
2023-01-19T21:44:59.459Z,28.00
2023-01-19T21:47:30.050Z,27.92
2023-01-19T21:50:00.489Z,27.84
2023-01-19T21:52:31.254Z,27.78
2023-01-19T21:55:02.322Z,27.72
2023-01-19T21:57:32.688Z,27.74
2023-01-19T22:00:03.131Z,27.80
2023-01-19T22:02:39.361Z,27.85
2023-01-19T22:05:10.312Z,27.89
2023-01-19T22:07:40.716Z,27.94
2023-01-19T22:10:12.377Z,27.96
2023-01-19T22:12:42.765Z,27.98
2023-01-19T22:15:13.628Z,28.02
2023-01-19T22:17:44.172Z,28.05
2023-01-19T22:20:15.511Z,28.07
2023-01-19T22:22:45.791Z,27.96
2023-01-19T22:25:16.312Z,27.87
2023-01-19T22:27:46.655Z,27.79
2023-01-19T22:30:17.332Z,27.19
2023-01-19T22:32:47.647Z,27.74
2023-01-19T22:35:18.229Z,27.78
2023-01-19T22:37:48.616Z,27.82
2023-01-19T22:40:19.252Z,27.87
2023-01-19T22:42:50.198Z,27.91
2023-01-19T22:45:20.619Z,27.92
2023-01-19T22:47:50.892Z,27.95
2023-01-19T22:50:21.284Z,27.99
2023-01-19T22:52:51.588Z,28.02
2023-01-19T22:55:22.109Z,28.04
2023-01-19T22:57:52.795Z,27.96
2023-01-19T23:00:23.419Z,27.87
2023-01-19T23:02:54.061Z,27.71
2023-01-19T23:05:25.094Z,27.71
2023-01-19T23:07:55.498Z,27.75
2023-01-19T23:10:26.209Z,27.77
2023-01-19T23:12:57.079Z,27.80
2023-01-19T23:15:27.539Z,27.80
2023-01-19T23:17:58.169Z,27.84
2023-01-19T23:20:28.626Z,27.85
2023-01-19T23:22:58.910Z,27.87
2023-01-19T23:25:29.405Z,27.91
2023-01-19T23:27:59.849Z,27.95
2023-01-19T23:30:30.892Z,27.97
2023-01-19T23:33:01.150Z,27.98
2023-01-19T23:35:31.589Z,27.99
2023-01-19T23:38:02.009Z,28.02
2023-01-19T23:40:33.072Z,28.02
2023-01-19T23:43:03.591Z,28.05
2023-01-19T23:45:36.108Z,28.05
2023-01-19T23:48:06.523Z,28.08
2023-01-19T23:50:40.711Z,28.12
2023-01-19T23:53:11.150Z,28.11
2023-01-19T23:55:43.316Z,28.14
2023-01-19T23:58:13.656Z,28.17
